createdAt,value
2018-12-10T00:00:47.709Z,3.40
2018-12-10T00:01:47.694Z,1.60
2018-12-10T00:02:47.719Z,1.60
2018-12-10T00:03:47.735Z,1.10
2018-12-10T00:04:47.708Z,2.30
2018-12-10T00:05:47.794Z,1.10
2018-12-10T00:06:47.660Z,1.40
2018-12-10T00:07:47.612Z,1.80
2018-12-10T00:08:47.617Z,1.50
2018-12-10T00:09:47.705Z,1.80
2018-12-10T00:10:47.614Z,1.70
2018-12-10T00:11:47.576Z,1.20
2018-12-10T00:12:47.575Z,1.90
2018-12-10T00:13:47.568Z,2.50
2018-12-10T00:14:47.550Z,2.20
2018-12-10T00:15:47.534Z,1.70
2018-12-10T00:16:47.518Z,1.90
2018-12-10T00:17:47.631Z,1.70
2018-12-10T00:18:47.498Z,2.50
2018-12-10T00:19:47.477Z,1.70
2018-12-10T00:20:47.489Z,2.30
2018-12-10T00:21:47.470Z,2.10
2018-12-10T00:22:47.443Z,3.20
2018-12-10T00:23:47.481Z,2.90
2018-12-10T00:24:47.417Z,1.30
2018-12-10T00:25:47.465Z,2.50
2018-12-10T00:26:47.413Z,1.30
2018-12-10T00:27:47.387Z,2.80
2018-12-10T00:28:47.374Z,2.00
2018-12-10T00:29:47.368Z,1.90
2018-12-10T00:30:47.387Z,2.10
2018-12-10T00:31:47.376Z,3.20
2018-12-10T00:32:47.332Z,2.10
2018-12-10T00:33:47.341Z,1.30
2018-12-10T00:34:47.352Z,1.70
2018-12-10T00:35:47.356Z,2.40
2018-12-10T00:36:47.335Z,4.00
2018-12-10T00:37:47.297Z,2.60
2018-12-10T00:38:47.296Z,1.90
2018-12-10T00:39:47.274Z,2.20
2018-12-10T00:40:47.260Z,2.40
2018-12-10T00:41:47.264Z,2.00
2018-12-10T00:42:47.400Z,1.80
2018-12-10T00:43:47.228Z,1.30
2018-12-10T00:44:47.236Z,2.20
2018-12-10T00:45:47.181Z,1.80
2018-12-10T00:46:47.214Z,3.00
2018-12-10T00:47:47.179Z,3.30
2018-12-10T00:48:47.154Z,2.20
2018-12-10T00:49:47.155Z,1.60
2018-12-10T00:50:47.141Z,1.20
2018-12-10T00:51:47.204Z,2.90
2018-12-10T00:52:47.152Z,1.30
2018-12-10T00:53:47.155Z,1.50
2018-12-10T00:54:47.087Z,2.80
2018-12-10T00:55:47.129Z,2.00
2018-12-10T00:56:47.092Z,2.30
2018-12-10T00:57:47.043Z,3.20
2018-12-10T00:58:47.039Z,1.90
2018-12-10T00:59:47.043Z,1.70
2018-12-10T01:00:47.023Z,1.50
2018-12-10T01:01:47.027Z,1.30
2018-12-10T01:02:46.996Z,3.10
2018-12-10T01:03:46.982Z,1.30
2018-12-10T01:04:47.016Z,3.50
2018-12-10T01:05:46.969Z,1.00
2018-12-10T01:06:46.959Z,2.20
2018-12-10T01:07:46.941Z,1.70
2018-12-10T01:08:46.975Z,1.60
2018-12-10T01:09:46.914Z,2.20
2018-12-10T01:10:46.919Z,2.00
2018-12-10T01:11:46.952Z,2.50
2018-12-10T01:12:46.880Z,3.80
2018-12-10T01:13:46.886Z,3.30
2018-12-10T01:14:46.915Z,2.80
2018-12-10T01:15:46.872Z,2.40
2018-12-10T01:16:46.863Z,3.10
2018-12-10T01:17:46.850Z,2.90
2018-12-10T01:18:46.807Z,2.80
2018-12-10T01:19:46.835Z,1.30
2018-12-10T01:20:46.823Z,2.20
2018-12-10T01:21:46.799Z,2.50
2018-12-10T01:22:46.772Z,1.80
2018-12-10T01:23:46.799Z,1.40
2018-12-10T01:24:46.773Z,3.20
2018-12-10T01:25:46.731Z,1.60
2018-12-10T01:26:46.738Z,3.50
2018-12-10T01:27:46.714Z,1.30
2018-12-10T01:28:46.701Z,2.70
2018-12-10T01:29:46.691Z,3.40
2018-12-10T01:30:46.700Z,2.40
2018-12-10T01:31:46.683Z,2.10
2018-12-10T01:32:46.660Z,4.10
2018-12-10T01:33:46.645Z,1.70
2018-12-10T01:34:46.800Z,1.90
2018-12-10T01:35:46.624Z,1.40
2018-12-10T01:36:46.624Z,3.40
2018-12-10T01:37:46.616Z,2.70
2018-12-10T01:38:46.581Z,3.00
2018-12-10T01:39:46.574Z,2.10
2018-12-10T01:40:46.576Z,4.00
2018-12-10T01:41:46.600Z,2.30
2018-12-10T01:42:46.550Z,2.00
2018-12-10T01:43:46.557Z,1.90
2018-12-10T01:44:46.543Z,2.20
2018-12-10T01:45:46.513Z,1.80
2018-12-10T01:46:46.561Z,1.70
2018-12-10T01:47:46.513Z,2.90
2018-12-10T01:48:46.524Z,3.30
2018-12-10T01:49:46.465Z,3.40
2018-12-10T01:50:46.451Z,3.10
2018-12-10T01:51:46.535Z,1.50
2018-12-10T01:52:46.437Z,1.30
2018-12-10T01:53:46.426Z,2.20
2018-12-10T01:54:46.455Z,1.30
2018-12-10T01:55:46.392Z,1.40
2018-12-10T01:56:46.435Z,3.00
2018-12-10T01:57:46.378Z,3.00
2018-12-10T01:58:46.371Z,4.00
2018-12-10T01:59:46.363Z,2.10
2018-12-10T02:00:46.420Z,2.60
2018-12-10T02:01:46.363Z,2.10
2018-12-10T02:02:46.322Z,2.50
2018-12-10T02:03:46.359Z,2.40
2018-12-10T02:04:46.375Z,1.80
2018-12-10T02:05:46.322Z,3.30
2018-12-10T02:06:46.339Z,2.10
2018-12-10T02:07:46.276Z,0.80
2018-12-10T02:08:46.251Z,2.10
2018-12-10T02:09:46.233Z,1.00
2018-12-10T02:10:46.257Z,2.00
2018-12-10T02:11:46.244Z,2.80
2018-12-10T02:12:46.234Z,1.60
2018-12-10T02:13:46.262Z,2.40
2018-12-10T02:14:46.208Z,1.70
2018-12-10T02:15:46.375Z,1.40
2018-12-10T02:16:46.186Z,1.10
2018-12-10T02:17:46.164Z,1.70
2018-12-10T02:18:46.155Z,2.00
2018-12-10T02:19:46.138Z,3.50
2018-12-10T02:20:46.141Z,2.80
2018-12-10T02:21:46.123Z,1.30
2018-12-10T02:22:46.177Z,1.70
2018-12-10T02:23:46.082Z,1.20
2018-12-10T02:24:46.078Z,1.20
2018-12-10T02:25:46.120Z,1.20
2018-12-10T02:26:46.142Z,2.00
2018-12-10T02:27:46.154Z,1.10
2018-12-10T02:28:46.031Z,2.20
2018-12-10T02:29:46.040Z,1.10
2018-12-10T02:30:45.997Z,2.50
2018-12-10T02:31:45.987Z,1.60
2018-12-10T02:32:46.046Z,2.60
2018-12-10T02:33:45.968Z,2.80
2018-12-10T02:34:46.074Z,2.30
2018-12-10T02:35:45.946Z,1.40
2018-12-10T02:36:45.976Z,1.10
2018-12-10T02:37:45.953Z,2.10
2018-12-10T02:38:45.939Z,2.90
2018-12-10T02:39:45.956Z,1.70
2018-12-10T02:40:45.890Z,1.80
2018-12-10T02:41:45.934Z,1.30
2018-12-10T02:42:45.910Z,1.20
2018-12-10T02:43:45.879Z,3.50
2018-12-10T02:44:45.844Z,1.20
2018-12-10T02:45:45.880Z,1.90
2018-12-10T02:46:45.839Z,3.80
2018-12-10T02:47:45.849Z,1.60
2018-12-10T02:48:45.824Z,2.00
2018-12-10T02:49:45.842Z,1.50
2018-12-10T02:50:45.769Z,2.30
2018-12-10T02:51:45.777Z,2.90
2018-12-10T02:52:45.756Z,2.70
2018-12-10T02:53:45.770Z,2.50
2018-12-10T02:54:45.834Z,2.70
2018-12-10T02:55:45.748Z,1.20
2018-12-10T02:56:45.708Z,2.80
2018-12-10T02:57:45.738Z,3.00
2018-12-10T02:58:45.699Z,1.50
2018-12-10T02:59:45.709Z,3.10
2018-12-10T03:00:45.694Z,1.60
2018-12-10T03:01:45.684Z,1.70
2018-12-10T03:02:45.746Z,2.10
2018-12-10T03:03:45.695Z,1.70
2018-12-10T03:04:45.666Z,2.70
2018-12-10T03:05:45.676Z,1.50
2018-12-10T03:06:45.629Z,1.80
2018-12-10T03:07:45.629Z,1.80
2018-12-10T03:08:45.573Z,1.90
2018-12-10T03:09:45.564Z,1.70
2018-12-10T03:10:45.572Z,1.70
2018-12-10T03:11:45.561Z,1.00
2018-12-10T03:12:45.531Z,1.90
2018-12-10T03:13:45.532Z,3.00
2018-12-10T03:14:45.500Z,3.80
2018-12-10T03:15:45.532Z,2.60
2018-12-10T03:16:45.478Z,3.00
2018-12-10T03:17:45.472Z,2.50
2018-12-10T03:18:45.461Z,2.70
2018-12-10T03:19:45.484Z,1.50
2018-12-10T03:20:45.434Z,2.60
2018-12-10T03:21:45.440Z,1.80
2018-12-10T03:22:45.423Z,2.50
2018-12-10T03:23:45.473Z,1.80
2018-12-10T03:24:45.393Z,0.80
2018-12-10T03:25:45.393Z,1.20
2018-12-10T03:26:45.385Z,1.30
2018-12-10T03:27:45.414Z,2.00
2018-12-10T03:28:45.347Z,2.10
2018-12-10T03:29:45.345Z,2.30
2018-12-10T03:30:45.336Z,3.10
2018-12-10T03:31:45.322Z,1.90
2018-12-10T03:32:45.311Z,2.30
2018-12-10T03:33:45.315Z,1.60
2018-12-10T03:34:45.400Z,1.60
2018-12-10T03:35:45.328Z,1.80
2018-12-10T03:36:45.255Z,1.30
2018-12-10T03:37:45.278Z,1.40
2018-12-10T03:38:45.306Z,2.80
2018-12-10T03:39:45.219Z,1.90
2018-12-10T03:40:45.411Z,2.30
2018-12-10T03:41:45.281Z,1.20
2018-12-10T03:42:45.197Z,2.20
2018-12-10T03:43:45.297Z,1.10
2018-12-10T03:44:45.167Z,1.20
2018-12-10T03:45:45.169Z,1.00
2018-12-10T03:46:45.817Z,1.20
2018-12-10T03:47:45.124Z,1.80
2018-12-10T03:48:45.123Z,1.40
2018-12-10T03:49:45.110Z,1.10
2018-12-10T03:50:45.100Z,1.90
2018-12-10T03:51:45.267Z,2.30
2018-12-10T03:52:45.105Z,1.20
2018-12-10T03:53:45.076Z,1.90
2018-12-10T03:54:45.051Z,2.10
2018-12-10T03:55:45.045Z,1.00
2018-12-10T03:56:45.033Z,1.50
2018-12-10T03:57:45.074Z,1.30
2018-12-10T03:58:45.051Z,1.20
2018-12-10T03:59:44.990Z,1.60
2018-12-10T04:00:44.987Z,1.30
2018-12-10T04:01:45.042Z,1.50
2018-12-10T04:02:44.995Z,2.80
2018-12-10T04:03:45.010Z,1.60
2018-12-10T04:04:45.056Z,1.50
2018-12-10T04:05:44.943Z,2.60
2018-12-10T04:06:44.947Z,2.20
2018-12-10T04:07:44.935Z,1.10
2018-12-10T04:08:44.916Z,1.50
2018-12-10T04:09:44.920Z,1.90
2018-12-10T04:10:44.934Z,1.10
2018-12-10T04:11:44.885Z,2.20
2018-12-10T04:12:44.856Z,1.80
2018-12-10T04:13:44.889Z,1.30
2018-12-10T04:14:44.852Z,1.40
2018-12-10T04:15:44.828Z,1.00
2018-12-10T04:16:44.829Z,1.20
2018-12-10T04:17:44.819Z,2.10
2018-12-10T04:18:44.795Z,1.10
2018-12-10T04:19:44.802Z,0.90
2018-12-10T04:20:44.844Z,1.40
2018-12-10T04:21:44.769Z,1.50
2018-12-10T04:22:44.755Z,1.10
2018-12-10T04:23:44.764Z,1.40
2018-12-10T04:24:45.729Z,2.80
2018-12-10T04:25:44.706Z,1.90
2018-12-10T04:26:44.758Z,1.50
2018-12-10T04:27:44.681Z,1.90
2018-12-10T04:28:44.677Z,1.40
2018-12-10T04:29:44.650Z,1.10
2018-12-10T04:30:44.685Z,1.80
2018-12-10T04:31:44.652Z,1.00
2018-12-10T04:32:44.625Z,1.10
2018-12-10T04:33:44.696Z,1.10
2018-12-10T04:34:44.687Z,1.20
2018-12-10T04:35:44.592Z,2.10
2018-12-10T04:36:44.597Z,2.20
2018-12-10T04:37:44.617Z,1.50
2018-12-10T04:38:44.602Z,0.80
2018-12-10T04:39:44.559Z,2.20
2018-12-10T04:40:44.549Z,0.90
2018-12-10T04:41:44.530Z,1.00
2018-12-10T04:42:44.626Z,2.00
2018-12-10T04:43:44.500Z,2.40
2018-12-10T04:44:44.501Z,2.50
2018-12-10T04:45:44.496Z,1.80
2018-12-10T04:46:44.470Z,1.20
2018-12-10T04:47:44.459Z,1.90
2018-12-10T04:48:44.461Z,1.40
2018-12-10T04:49:44.523Z,1.60
2018-12-10T04:50:44.423Z,1.10
2018-12-10T04:51:44.410Z,1.60
2018-12-10T04:52:44.432Z,1.90
2018-12-10T04:53:44.447Z,1.50
2018-12-10T04:54:44.403Z,1.80
2018-12-10T04:55:44.373Z,1.40
2018-12-10T04:56:44.353Z,1.90
2018-12-10T04:57:44.374Z,2.50
2018-12-10T04:58:44.349Z,3.20
2018-12-10T04:59:52.591Z,2.70
2018-12-10T05:00:45.344Z,2.10
2018-12-10T05:01:44.352Z,1.30
2018-12-10T05:02:44.292Z,1.80
2018-12-10T05:03:44.273Z,1.60
2018-12-10T05:04:44.311Z,1.40
2018-12-10T05:05:44.282Z,3.70
2018-12-10T05:06:44.271Z,1.80
2018-12-10T05:07:44.256Z,2.30
2018-12-10T05:08:44.268Z,1.10
2018-12-10T05:09:44.224Z,2.30
2018-12-10T05:10:44.236Z,0.90
2018-12-10T05:11:44.242Z,2.50
2018-12-10T05:12:44.179Z,2.70
2018-12-10T05:13:44.174Z,2.00
2018-12-10T05:14:44.183Z,1.60
2018-12-10T05:15:44.152Z,1.10
2018-12-10T05:16:44.135Z,1.40
2018-12-10T05:17:44.159Z,1.70
2018-12-10T05:18:44.197Z,1.70
2018-12-10T05:19:44.108Z,2.30
2018-12-10T05:20:44.117Z,2.40
2018-12-10T05:21:44.089Z,2.80
2018-12-10T05:22:44.073Z,2.00
2018-12-10T05:23:44.101Z,1.30
2018-12-10T05:24:44.118Z,1.80
2018-12-10T05:25:44.035Z,3.70
2018-12-10T05:26:44.214Z,2.60
2018-12-10T05:27:44.085Z,2.30
2018-12-10T05:28:43.988Z,1.70
2018-12-10T05:29:44.014Z,1.90
2018-12-10T05:30:43.987Z,1.40
2018-12-10T05:31:43.960Z,0.90
2018-12-10T05:32:43.975Z,2.60
2018-12-10T05:33:43.940Z,1.90
2018-12-10T05:34:44.055Z,1.10
2018-12-10T05:35:43.915Z,1.30
2018-12-10T05:36:43.909Z,1.50
2018-12-10T05:37:43.911Z,3.90
2018-12-10T05:38:43.980Z,2.60
2018-12-10T05:39:43.894Z,2.50
2018-12-10T05:40:43.871Z,2.00
2018-12-10T05:41:43.915Z,0.70
2018-12-10T05:42:43.879Z,1.70
2018-12-10T05:43:43.833Z,1.50
2018-12-10T05:44:43.842Z,1.70
2018-12-10T05:45:43.818Z,0.80
2018-12-10T05:46:43.784Z,1.80
2018-12-10T05:47:43.840Z,2.10
2018-12-10T05:48:43.772Z,1.30
2018-12-10T05:49:43.804Z,1.30
2018-12-10T05:50:43.774Z,1.70
2018-12-10T05:51:43.834Z,1.30
2018-12-10T05:52:43.816Z,1.10
2018-12-10T05:53:43.708Z,1.30
2018-12-10T05:54:43.758Z,1.40
2018-12-10T05:55:43.748Z,1.10
2018-12-10T05:56:43.745Z,1.20
2018-12-10T05:57:43.696Z,1.60
2018-12-10T05:58:43.709Z,2.40
2018-12-10T05:59:43.645Z,2.40
2018-12-10T06:00:43.670Z,2.10
2018-12-10T06:01:43.687Z,1.40
2018-12-10T06:02:43.614Z,2.10
2018-12-10T06:03:43.639Z,1.60
2018-12-10T06:04:43.749Z,1.60
2018-12-10T06:05:43.681Z,1.70
2018-12-10T06:06:43.594Z,2.60
2018-12-10T06:07:43.609Z,0.90
2018-12-10T06:08:43.595Z,1.30
2018-12-10T06:09:43.548Z,1.00
2018-12-10T06:10:43.547Z,1.30
2018-12-10T06:11:43.533Z,1.50
2018-12-10T06:12:43.492Z,1.60
2018-12-10T06:13:43.504Z,1.70
2018-12-10T06:14:43.479Z,2.50
2018-12-10T06:15:43.463Z,1.50
2018-12-10T06:16:43.469Z,1.60
2018-12-10T06:17:43.737Z,1.70
2018-12-10T06:18:43.430Z,1.90
2018-12-10T06:19:43.416Z,1.00
2018-12-10T06:20:43.420Z,1.60
2018-12-10T06:21:43.397Z,1.90
2018-12-10T06:22:43.381Z,1.30
2018-12-10T06:23:43.394Z,1.10
2018-12-10T06:24:43.407Z,1.40
2018-12-10T06:25:43.534Z,2.60
2018-12-10T06:26:43.354Z,1.40
2018-12-10T06:27:43.326Z,1.00
2018-12-10T06:28:43.808Z,0.90
2018-12-10T06:29:43.297Z,1.40
2018-12-10T06:30:43.299Z,2.20
2018-12-10T06:31:43.294Z,1.50
2018-12-10T06:32:43.336Z,3.10
2018-12-10T06:33:43.315Z,1.00
2018-12-10T06:34:43.364Z,1.70
2018-12-10T06:35:43.300Z,1.00
2018-12-10T06:36:43.271Z,1.40
2018-12-10T06:37:43.224Z,1.20
2018-12-10T06:38:43.250Z,1.60
2018-12-10T06:39:43.201Z,1.00
2018-12-10T06:40:43.190Z,0.70
2018-12-10T06:41:43.205Z,2.40
2018-12-10T06:42:43.181Z,1.20
2018-12-10T06:43:43.147Z,2.00
2018-12-10T06:44:43.178Z,1.20
2018-12-10T06:45:43.119Z,1.70
2018-12-10T06:46:43.145Z,1.80
2018-12-10T06:47:43.095Z,2.10
2018-12-10T06:48:43.082Z,1.60
2018-12-10T06:49:43.090Z,2.20
2018-12-10T06:50:43.070Z,1.90
2018-12-10T06:51:43.054Z,3.40
2018-12-10T06:52:43.038Z,1.60
2018-12-10T06:53:43.030Z,4.00
2018-12-10T06:54:43.058Z,2.00
2018-12-10T06:55:43.005Z,2.50
2018-12-10T06:56:43.004Z,3.70
2018-12-10T06:57:42.994Z,1.70
2018-12-10T06:58:43.003Z,1.70
2018-12-10T06:59:42.962Z,1.90
2018-12-10T07:00:43.001Z,3.00
2018-12-10T07:01:42.969Z,2.50
2018-12-10T07:02:42.956Z,2.60
2018-12-10T07:03:42.996Z,3.00
2018-12-10T07:04:42.941Z,3.20
2018-12-10T07:05:42.928Z,1.90
2018-12-10T07:06:42.882Z,3.20
2018-12-10T07:07:42.875Z,3.00
2018-12-10T07:08:42.867Z,3.30
2018-12-10T07:09:42.858Z,2.60
2018-12-10T07:10:42.874Z,2.00
2018-12-10T07:11:42.845Z,2.90
2018-12-10T07:12:42.813Z,4.00
2018-12-10T07:13:42.817Z,2.80
2018-12-10T07:14:42.795Z,4.30
2018-12-10T07:15:42.784Z,2.30
2018-12-10T07:16:42.781Z,2.80
2018-12-10T07:17:42.755Z,2.50
2018-12-10T07:18:42.747Z,4.90
2018-12-10T07:19:42.775Z,2.60
2018-12-10T07:20:42.754Z,3.10
2018-12-10T07:21:42.754Z,4.70
2018-12-10T07:22:42.750Z,4.70
2018-12-10T07:23:42.716Z,3.00
2018-12-10T07:24:42.676Z,4.10
2018-12-10T07:25:42.717Z,2.40
2018-12-10T07:26:42.680Z,3.00
2018-12-10T07:27:42.651Z,5.40
2018-12-10T07:28:42.706Z,6.00
2018-12-10T07:29:42.632Z,4.00
2018-12-10T07:30:42.625Z,2.50
2018-12-10T07:31:42.644Z,2.80
2018-12-10T07:32:42.591Z,2.00
2018-12-10T07:33:42.579Z,2.40
2018-12-10T07:34:42.581Z,2.10
2018-12-10T07:35:42.548Z,1.70
2018-12-10T07:36:42.567Z,1.90
2018-12-10T07:37:42.657Z,3.10
2018-12-10T07:38:42.515Z,2.40
2018-12-10T07:39:42.507Z,2.60
2018-12-10T07:40:42.548Z,3.70
2018-12-10T07:41:42.507Z,2.80
2018-12-10T07:42:42.488Z,2.00
2018-12-10T07:43:42.495Z,2.20
2018-12-10T07:44:42.528Z,1.90
2018-12-10T07:45:42.447Z,3.90
2018-12-10T07:46:42.433Z,4.30
2018-12-10T07:47:42.438Z,2.80
2018-12-10T07:48:42.428Z,1.90
2018-12-10T07:49:42.450Z,2.90
2018-12-10T07:50:42.402Z,2.20
2018-12-10T07:51:42.375Z,2.40
2018-12-10T07:52:42.363Z,2.80
2018-12-10T07:53:42.344Z,1.30
2018-12-10T07:54:42.365Z,4.10
2018-12-10T07:55:42.343Z,1.30
2018-12-10T07:56:42.406Z,1.40
2018-12-10T07:57:42.308Z,1.20
2018-12-10T07:58:42.298Z,1.30
2018-12-10T07:59:42.290Z,1.80
2018-12-10T08:00:42.270Z,2.90
2018-12-10T08:01:42.263Z,1.40
2018-12-10T08:02:42.257Z,1.90
2018-12-10T08:03:42.479Z,1.40
2018-12-10T08:04:42.345Z,2.50
2018-12-10T08:05:42.209Z,1.40
2018-12-10T08:06:42.247Z,1.40
2018-12-10T08:07:42.196Z,1.30
2018-12-10T08:08:42.183Z,1.50
2018-12-10T08:09:42.212Z,3.20
2018-12-10T08:10:42.154Z,1.40
2018-12-10T08:11:42.143Z,1.40
2018-12-10T08:12:42.140Z,1.30
2018-12-10T08:13:42.122Z,1.30
2018-12-10T08:14:42.125Z,1.20
2018-12-10T08:15:42.097Z,1.30
2018-12-10T08:16:42.212Z,1.50
2018-12-10T08:17:42.121Z,3.00
2018-12-10T08:18:42.145Z,1.20
2018-12-10T08:19:42.060Z,1.50
2018-12-10T08:20:42.121Z,1.80
2018-12-10T08:21:42.045Z,1.60
2018-12-10T08:22:42.035Z,2.30
2018-12-10T08:23:42.029Z,1.40
2018-12-10T08:24:42.004Z,2.00
2018-12-10T08:25:42.007Z,2.90
2018-12-10T08:26:41.992Z,1.50
2018-12-10T08:27:41.990Z,1.20
2018-12-10T08:28:41.978Z,2.10
2018-12-10T08:29:41.942Z,1.30
2018-12-10T08:30:41.932Z,1.60
2018-12-10T08:31:41.931Z,1.20
2018-12-10T08:32:41.921Z,2.20
2018-12-10T08:33:41.894Z,1.70
2018-12-10T08:34:41.963Z,2.40
2018-12-10T08:35:41.873Z,1.30
2018-12-10T08:36:41.868Z,2.30
2018-12-10T08:37:41.896Z,1.80
2018-12-10T08:38:41.875Z,1.60
2018-12-10T08:39:41.838Z,1.80
2018-12-10T08:40:41.905Z,1.80
2018-12-10T08:41:41.841Z,1.20
2018-12-10T08:42:42.033Z,1.20
2018-12-10T08:43:41.801Z,1.60
2018-12-10T08:44:41.886Z,1.30
2018-12-10T08:45:41.980Z,5.10
2018-12-10T08:46:41.970Z,1.20
2018-12-10T08:47:41.873Z,2.10
2018-12-10T08:48:41.898Z,1.50
2018-12-10T08:49:41.794Z,1.60
2018-12-10T08:50:41.783Z,1.10
2018-12-10T08:51:41.714Z,1.70
2018-12-10T08:52:41.832Z,1.30
2018-12-10T08:53:41.677Z,2.00
2018-12-10T08:54:41.718Z,1.40
2018-12-10T08:55:41.668Z,1.20
2018-12-10T08:56:41.635Z,1.10
2018-12-10T08:57:41.679Z,2.10
2018-12-10T08:58:41.651Z,1.10
2018-12-10T08:59:41.669Z,2.20
2018-12-10T09:00:41.589Z,1.70
2018-12-10T09:01:41.580Z,1.30
2018-12-10T09:02:41.665Z,1.20
2018-12-10T09:03:41.557Z,1.40
2018-12-10T09:04:41.568Z,2.30
2018-12-10T09:05:41.533Z,2.10
2018-12-10T09:06:41.562Z,1.90
2018-12-10T09:07:41.567Z,1.50
2018-12-10T09:08:41.505Z,1.20
2018-12-10T09:09:41.490Z,1.60
2018-12-10T09:10:41.537Z,2.80
2018-12-10T09:11:41.499Z,1.10
2018-12-10T09:12:47.004Z,1.80
2018-12-10T09:13:42.502Z,1.30
2018-12-10T09:14:41.459Z,1.20
2018-12-10T09:15:41.577Z,2.10
2018-12-10T09:16:41.421Z,1.70
2018-12-10T09:17:41.413Z,1.30
2018-12-10T09:18:41.569Z,2.70
2018-12-10T09:19:41.382Z,1.10
2018-12-10T09:20:41.435Z,1.20
2018-12-10T09:21:41.354Z,1.40
2018-12-10T09:22:41.361Z,1.20
2018-12-10T09:23:41.357Z,2.20
2018-12-10T09:24:41.384Z,1.90
2018-12-10T09:25:41.343Z,0.90
2018-12-10T09:26:41.331Z,1.70
2018-12-10T09:27:41.293Z,2.20
2018-12-10T09:28:41.293Z,1.20
2018-12-10T09:29:41.310Z,1.20
2018-12-10T09:30:41.256Z,1.80
2018-12-10T09:31:41.246Z,1.20
2018-12-10T09:32:41.246Z,1.70
2018-12-10T09:33:41.243Z,1.20
2018-12-10T09:34:41.249Z,3.40
2018-12-10T09:35:41.195Z,3.70
2018-12-10T09:36:41.187Z,2.50
2018-12-10T09:37:41.212Z,2.90
2018-12-10T09:38:41.181Z,2.90
2018-12-10T09:39:41.157Z,2.70
2018-12-10T09:40:41.139Z,4.00
2018-12-10T09:41:41.133Z,2.90
2018-12-10T09:42:41.116Z,4.10
2018-12-10T09:43:41.103Z,3.30
2018-12-10T09:44:41.113Z,3.60
2018-12-10T09:45:41.094Z,3.30
2018-12-10T09:46:41.071Z,4.10
2018-12-10T09:47:42.159Z,3.70
2018-12-10T09:48:41.233Z,2.60
2018-12-10T09:49:41.070Z,4.00
2018-12-10T09:50:41.027Z,4.80
2018-12-10T09:51:42.893Z,3.10
2018-12-10T09:52:41.286Z,4.60
2018-12-10T09:53:41.000Z,2.70
2018-12-10T09:54:40.990Z,3.60
2018-12-10T09:55:41.094Z,3.00
2018-12-10T09:56:40.970Z,3.50
2018-12-10T09:57:40.946Z,4.80
2018-12-10T09:58:40.989Z,3.90
2018-12-10T09:59:40.935Z,4.10
2018-12-10T10:00:40.928Z,4.70
2018-12-10T10:01:40.923Z,5.80
2018-12-10T10:02:40.890Z,4.20
2018-12-10T10:03:40.945Z,3.90
2018-12-10T10:04:51.648Z,5.00
2018-12-10T10:05:40.898Z,5.10
2018-12-10T10:06:40.852Z,5.20
2018-12-10T10:07:40.837Z,6.60
2018-12-10T10:08:40.827Z,7.10
2018-12-10T10:09:40.823Z,4.30
2018-12-10T10:10:40.807Z,4.30
2018-12-10T10:11:40.803Z,6.20
2018-12-10T10:12:40.801Z,6.60
2018-12-10T10:13:40.780Z,8.50
2018-12-10T10:14:40.823Z,7.00
2018-12-10T10:15:40.760Z,6.70
2018-12-10T10:16:40.748Z,6.90
2018-12-10T10:17:40.743Z,4.20
2018-12-10T10:18:40.747Z,6.60
2018-12-10T10:19:40.718Z,3.90
2018-12-10T10:20:40.692Z,5.10
2018-12-10T10:21:40.752Z,5.20
2018-12-10T10:22:40.703Z,3.50
2018-12-10T10:23:40.663Z,6.00
2018-12-10T10:24:40.665Z,5.00
2018-12-10T10:25:40.633Z,4.50
2018-12-10T10:26:40.669Z,3.90
2018-12-10T10:27:40.640Z,6.00
2018-12-10T10:28:40.611Z,5.10
2018-12-10T10:29:40.694Z,1.80
2018-12-10T10:30:44.078Z,5.90
2018-12-10T10:31:40.566Z,5.90
2018-12-10T10:32:40.572Z,2.30
2018-12-10T10:33:40.618Z,5.60
2018-12-10T10:34:40.620Z,5.20
2018-12-10T10:35:40.525Z,3.70
2018-12-10T10:36:40.529Z,3.20
2018-12-10T10:37:40.526Z,5.20
2018-12-10T10:38:40.499Z,4.30
2018-12-10T10:39:40.570Z,4.30
2018-12-10T10:40:40.480Z,4.90
2018-12-10T10:41:40.452Z,5.60
2018-12-10T10:42:40.445Z,3.30
2018-12-10T10:43:40.463Z,4.10
2018-12-10T10:44:40.470Z,2.70
2018-12-10T10:45:40.421Z,3.40
2018-12-10T10:46:40.503Z,2.60
2018-12-10T10:47:40.380Z,4.00
2018-12-10T10:48:40.371Z,3.20
2018-12-10T10:49:40.374Z,2.90
2018-12-10T10:50:40.374Z,2.70
2018-12-10T10:51:40.340Z,3.00
2018-12-10T10:52:40.371Z,5.70
2018-12-10T10:53:40.313Z,2.80
2018-12-10T10:54:40.313Z,2.90
2018-12-10T10:55:40.324Z,5.70
2018-12-10T10:56:40.305Z,4.10
2018-12-10T10:57:40.274Z,3.60
2018-12-10T10:58:40.254Z,3.50
2018-12-10T10:59:40.249Z,3.70
2018-12-10T11:00:40.241Z,5.00
2018-12-10T11:01:40.269Z,6.10
2018-12-10T11:02:40.240Z,3.30
2018-12-10T11:03:40.227Z,2.90
2018-12-10T11:04:40.211Z,5.10
2018-12-10T11:05:40.180Z,3.40
2018-12-10T11:06:40.276Z,5.00
2018-12-10T11:07:40.152Z,4.90
2018-12-10T11:08:40.146Z,4.30
2018-12-10T11:09:40.128Z,5.60
2018-12-10T11:10:40.145Z,4.10
2018-12-10T11:11:40.168Z,4.60
2018-12-10T11:12:40.106Z,5.10
2018-12-10T11:13:40.143Z,4.70
2018-12-10T11:14:40.084Z,4.40
2018-12-10T11:15:40.258Z,5.40
2018-12-10T11:16:40.049Z,4.40
2018-12-10T11:17:40.046Z,5.10
2018-12-10T11:18:40.058Z,4.90
2018-12-10T11:19:40.074Z,4.90
2018-12-10T11:20:40.022Z,7.20
2018-12-10T11:21:40.021Z,5.00
2018-12-10T11:22:40.489Z,6.20
2018-12-10T11:23:40.020Z,5.80
2018-12-10T11:24:39.966Z,4.20
2018-12-10T11:25:39.964Z,3.30
2018-12-10T11:26:40.016Z,4.50
2018-12-10T11:27:39.930Z,5.20
2018-12-10T11:28:39.926Z,5.90
2018-12-10T11:29:39.916Z,4.10
2018-12-10T11:30:39.982Z,4.50
2018-12-10T11:31:39.882Z,2.70
2018-12-10T11:32:39.877Z,2.90
2018-12-10T11:33:39.886Z,2.40
2018-12-10T11:34:39.902Z,4.50
2018-12-10T11:35:39.872Z,5.50
2018-12-10T11:36:39.827Z,6.70
2018-12-10T11:37:39.820Z,2.90
2018-12-10T11:38:39.855Z,2.80
2018-12-10T11:39:39.793Z,3.70
2018-12-10T11:40:39.808Z,5.50
2018-12-10T11:41:39.776Z,3.80
2018-12-10T11:42:39.757Z,4.00
2018-12-10T11:43:39.744Z,2.90
2018-12-10T11:44:39.728Z,3.00
2018-12-10T11:45:39.727Z,3.30
2018-12-10T11:46:39.706Z,5.00
2018-12-10T11:47:39.697Z,4.60
2018-12-10T11:48:39.687Z,4.30
2018-12-10T11:49:39.694Z,4.30
2018-12-10T11:50:39.703Z,4.80
2018-12-10T11:51:39.661Z,4.60
2018-12-10T11:52:39.644Z,4.30
2018-12-10T11:53:39.636Z,6.20
2018-12-10T11:54:39.632Z,4.10
2018-12-10T11:55:39.625Z,5.30
2018-12-10T11:56:39.659Z,6.00
2018-12-10T11:57:39.583Z,6.60
2018-12-10T11:58:39.594Z,6.70
2018-12-10T11:59:39.591Z,6.90
2018-12-10T12:00:39.614Z,4.70
2018-12-10T12:01:39.635Z,6.20
2018-12-10T12:02:39.796Z,8.40
2018-12-10T12:03:40.502Z,5.70
2018-12-10T12:04:50.612Z,5.60
2018-12-10T12:05:42.094Z,7.50
2018-12-10T12:06:39.597Z,7.80
2018-12-10T12:07:39.478Z,7.30
2018-12-10T12:08:39.457Z,8.90
2018-12-10T12:09:39.455Z,7.30
2018-12-10T12:10:39.497Z,5.20
2018-12-10T12:11:39.429Z,4.60
2018-12-10T12:12:39.427Z,3.50
2018-12-10T12:13:39.404Z,8.80
2018-12-10T12:14:39.389Z,5.50
2018-12-10T12:15:39.508Z,6.50
2018-12-10T12:16:39.369Z,6.70
2018-12-10T12:17:39.365Z,5.80
2018-12-10T12:18:39.358Z,8.70
2018-12-10T12:19:39.332Z,4.00
2018-12-10T12:20:39.327Z,5.90
2018-12-10T12:21:39.308Z,3.60
2018-12-10T12:22:39.299Z,4.90
2018-12-10T12:23:39.294Z,7.10
2018-12-10T12:24:39.333Z,5.10
2018-12-10T12:25:39.268Z,4.50
2018-12-10T12:26:39.250Z,6.00
2018-12-10T12:27:39.243Z,3.80
2018-12-10T12:28:39.262Z,4.60
2018-12-10T12:29:39.242Z,5.70
2018-12-10T12:30:39.235Z,4.50
2018-12-10T12:31:39.211Z,7.70
2018-12-10T12:32:39.239Z,6.30
2018-12-10T12:33:39.190Z,4.40
2018-12-10T12:34:39.185Z,5.30
2018-12-10T12:35:39.168Z,2.60
2018-12-10T12:36:39.153Z,5.10
2018-12-10T12:37:39.147Z,4.90
2018-12-10T12:38:39.145Z,6.00
2018-12-10T12:39:39.108Z,2.80
2018-12-10T12:40:39.127Z,5.10
2018-12-10T12:41:39.118Z,4.90
2018-12-10T12:42:39.085Z,3.40
2018-12-10T12:43:39.130Z,2.60
2018-12-10T12:44:39.072Z,2.70
2018-12-10T12:45:39.052Z,5.10
2018-12-10T12:46:39.059Z,3.30
2018-12-10T12:47:39.018Z,3.60
2018-12-10T12:48:38.999Z,4.90
2018-12-10T12:49:39.013Z,7.90
2018-12-10T12:50:38.984Z,3.70
2018-12-10T12:51:39.042Z,4.40
2018-12-10T12:52:38.958Z,3.40
2018-12-10T12:53:38.953Z,1.40
2018-12-10T12:54:38.938Z,3.00
2018-12-10T12:55:38.932Z,8.10
2018-12-10T12:56:38.923Z,4.40
2018-12-10T12:57:38.923Z,4.50
2018-12-10T12:58:38.917Z,3.10
2018-12-10T12:59:38.880Z,4.50
2018-12-10T13:00:42.020Z,3.90
2018-12-10T13:01:38.872Z,4.40
2018-12-10T13:02:38.864Z,4.50
2018-12-10T13:03:38.836Z,3.40
2018-12-10T13:04:38.922Z,5.10
2018-12-10T13:05:38.807Z,4.40
2018-12-10T13:06:38.804Z,3.80
2018-12-10T13:07:38.812Z,3.70
2018-12-10T13:08:38.799Z,2.80
2018-12-10T13:09:38.763Z,5.10
2018-12-10T13:10:38.759Z,5.10
2018-12-10T13:11:38.760Z,5.60
2018-12-10T13:12:38.776Z,4.00
2018-12-10T13:13:38.723Z,4.40
2018-12-10T13:14:38.719Z,3.60
2018-12-10T13:15:38.705Z,3.40
2018-12-10T13:16:38.703Z,4.90
2018-12-10T13:17:38.678Z,4.40
2018-12-10T13:18:38.664Z,4.30